Pagrindinis puslapis
METAR-TAF:

METAR-TAF

Oro uostai :

Budė, Norvegija

platuma: 67-16N, ilguma: 014-22E, Aukštis: 1 m

Dabartinis oras

Ataskaita buvo paskelbta 8 minutes, ne 02:50 UTC
Vėjas 4 kt iš Šiaurės/Šiaurės Vakarų
Temperatūra 12°C
Drėgmė 82%
Slėgis 1021 hPa
Matomumas 10 km arba daugiau
Mažai debesys ne aukštis 1200 ft
Išsisklaidę debesys ne aukštis 2000 ft
Su prošvaistėmis ne aukštis 2500 ft

METAR: ENBO 240250Z 34004KT 9999 FEW012 SCT020 BKN025 12/09 Q1021

Laikas: 04:58 (02:58 UTC)

Prognozė

Prognozė galioja nuo 24 metu 00 UTC su 24 metu 24 UTC
Vėjas 8 kt iš Šiaurės/Šiaurės Vakarų
Matomumas 10 km arba daugiau
Mažai debesys ne aukštis 500 ft
Su prošvaistėmis ne aukštis 2000 ft
Laikinai
nuo 24 metu 00 UTC su 24 metu 09 UTC
Išsisklaidę debesys ne aukštis 500 ft
Su prošvaistėmis ne aukštis 800 ft

TAF: ENBO 2400/2424 33008KT 9999 FEW005 BKN020 TEMPO 2400/2409 SCT005 BKN008

Orai ataskaitas ir orų prognozės (METAR, TAF).

turimą stotys yra geltonos ir raudonos taškus žemėlapyje.

Perkelti pele per norėdami pamatyti stoties vardą.

Tada spustelėkite, norėdami matyti oro stebėjimo ir prognozės.

Norėdami pakeisti žemėlapį: spustelėkite ant žalios mygtukų su juodo kryžiaus žemyn,; žalią mygtuką su brūkšneliu, jei norite nutolinti; arba žalių rodyklių gretimoms žemėlapius.


METAR-TAF: